Amerstroom — PCQF — position and weather

sailwx.info

Track history (hours):
 
Tides and Currents Weather Stations Pressure Air Temp Water Temp Dewpoint Dewpoint Depression Visibility Wind Speed Wind Dir Waves Ship Positions

Amerstroom

Last reported at 2018-Jan-12 06:50 UTC. Time now 2018-Jan-20 03:41 UTC.
Position N 36°13' E 014°44'.

Length 23 m; draft 2.8 m.

Type: Tug. MMSI: 246877000.

Date/timePositionNaut miles runAvg speedWind from/ knotsBaromVisibWave heightAir tempDewpointWater temp
2018-Jan-12 06:50N 36°13' E 014°44'3 7.9
2018-Jan-12 06:30N 36°14' E 014°41'4 7.9
2018-Jan-12 06:00N 36°15' E 014°36'4 7.8
2018-Jan-12 05:30N 36°17' E 014°32'4 7.9
2018-Jan-12 05:00N 36°19' E 014°27'4 8.0
2018-Jan-12 04:30N 36°20' E 014°23'4 8.2
2018-Jan-12 04:00N 36°22' E 014°18'4 8.3
2018-Jan-12 03:30N 36°23' E 014°13'4 8.2
2018-Jan-12 03:00N 36°25' E 014°08'  
2018-Jan-08 02:32N 36°20' W 002°25'0 8.3
2018-Jan-08 02:29N 36°20' W 002°26'4 8.2
2018-Jan-08 02:00N 36°19' W 002°31'4 8.0
2018-Jan-08 01:30N 36°18' W 002°35'4 8.0
2018-Jan-08 01:00N 36°18' W 002°40'4 8.2
2018-Jan-08 00:30N 36°17' W 002°45'4 8.2
2018-Jan-08 00:00N 36°17' W 002°51'4 7.9
2018-Jan-07 23:30N 36°16' W 002°55'113 8.6
2018-Jan-07 10:27N 35°59' W 005°13'4 9.7
2018-Jan-07 10:00N 35°59' W 005°19'611.3
2018-Jan-07 09:30N 35°57' W 005°25'  
Track history (hours):
 
Tides and Currents Weather Stations Pressure Air Temp Water Temp Dewpoint Dewpoint Depression Visibility Wind Speed Wind Dir Waves Ship Positions

Amerstroom

Last reported at 2018-Jan-12 06:50 UTC. Time now 2018-Jan-20 03:41 UTC.
Position N 36°13' E 014°44'.

Length 23 m; draft 2.8 m.

Type: Tug. MMSI: 246877000.

Date/timePositionNaut miles runAvg speedWind from/ knotsBaromVisibWave heightAir tempDewpointWater temp
2018-Jan-12 06:50N 36°13' E 014°44'3 7.9
2018-Jan-12 06:30N 36°14' E 014°41'4 7.9
2018-Jan-12 06:00N 36°15' E 014°36'4 7.8
2018-Jan-12 05:30N 36°17' E 014°32'4 7.9
2018-Jan-12 05:00N 36°19' E 014°27'4 8.0
2018-Jan-12 04:30N 36°20' E 014°23'4 8.2
2018-Jan-12 04:00N 36°22' E 014°18'4 8.3
2018-Jan-12 03:30N 36°23' E 014°13'4 8.2
2018-Jan-12 03:00N 36°25' E 014°08'  
2018-Jan-08 02:32N 36°20' W 002°25'0 8.3
2018-Jan-08 02:29N 36°20' W 002°26'4 8.2
2018-Jan-08 02:00N 36°19' W 002°31'4 8.0
2018-Jan-08 01:30N 36°18' W 002°35'4 8.0
2018-Jan-08 01:00N 36°18' W 002°40'4 8.2
2018-Jan-08 00:30N 36°17' W 002°45'4 8.2
2018-Jan-08 00:00N 36°17' W 002°51'4 7.9
2018-Jan-07 23:30N 36°16' W 002°55'113 8.6
2018-Jan-07 10:27N 35°59' W 005°13'4 9.7
2018-Jan-07 10:00N 35°59' W 005°19'611.3
2018-Jan-07 09:30N 35°57' W 005°25'  

Dump ship's entire track history